createdAt,value
2022-11-03T00:04:00.828Z,23.80
2022-11-03T00:06:12.817Z,22.80
2022-11-03T00:07:20.563Z,24.56
2022-11-03T00:08:22.380Z,23.30
2022-11-03T00:09:24.828Z,26.00
2022-11-03T00:10:26.621Z,24.00
2022-11-03T00:11:28.470Z,22.11
2022-11-03T00:12:30.115Z,24.33
2022-11-03T00:13:32.458Z,21.78
2022-11-03T00:14:34.290Z,22.80
2022-11-03T00:15:36.313Z,23.60
2022-11-03T00:16:39.374Z,22.11
2022-11-03T00:17:41.212Z,23.90
2022-11-03T00:18:42.967Z,22.33
2022-11-03T00:19:44.609Z,21.78
2022-11-03T00:21:02.701Z,21.56
2022-11-03T00:22:04.651Z,23.60
2022-11-03T00:23:06.786Z,22.11
2022-11-03T00:24:10.159Z,22.10
2022-11-03T00:25:33.540Z,21.10
2022-11-03T00:28:23.488Z,23.80
2022-11-03T00:29:39.411Z,21.40
2022-11-03T00:31:04.919Z,25.30
2022-11-03T00:36:41.158Z,23.30
2022-11-03T00:37:43.058Z,22.30
2022-11-03T00:38:45.506Z,21.78
2022-11-03T00:39:47.405Z,25.10
2022-11-03T00:41:00.312Z,21.00
2022-11-03T00:42:02.397Z,24.20
2022-11-03T00:43:04.435Z,20.00
2022-11-03T00:44:06.797Z,22.20
2022-11-03T00:45:09.127Z,24.70
2022-11-03T00:46:12.705Z,24.10
2022-11-03T00:47:14.582Z,22.55
2022-11-03T00:48:17.579Z,24.50
2022-11-03T00:49:19.535Z,22.30
2022-11-03T00:50:21.251Z,25.22
2022-11-03T00:51:26.282Z,22.11
2022-11-03T00:52:28.130Z,20.60
2022-11-03T00:53:32.068Z,28.11
2022-11-03T00:54:33.876Z,20.50
2022-11-03T00:55:36.210Z,24.56
2022-11-03T00:56:40.037Z,24.10
2022-11-03T00:57:41.864Z,26.20
2022-11-03T00:58:44.179Z,23.30
2022-11-03T00:59:47.087Z,25.10
2022-11-03T01:00:50.909Z,27.50
2022-11-03T01:01:53.117Z,25.90
2022-11-03T01:02:55.229Z,20.30
2022-11-03T01:03:58.393Z,25.22
2022-11-03T01:05:00.352Z,24.30
2022-11-03T01:06:05.364Z,23.10
2022-11-03T01:07:07.484Z,24.60
2022-11-03T01:08:09.742Z,25.30
2022-11-03T01:09:11.569Z,22.60
2022-11-03T01:10:14.037Z,25.44
2022-11-03T01:11:19.047Z,29.70
2022-11-03T01:12:21.378Z,26.90
2022-11-03T01:13:23.305Z,27.00
2022-11-03T01:14:28.084Z,27.11
2022-11-03T01:15:30.473Z,20.90
2022-11-03T01:16:32.926Z,25.80
2022-11-03T01:17:34.629Z,26.20
2022-11-03T01:18:36.846Z,25.22
2022-11-03T01:19:38.557Z,29.50
2022-11-03T01:20:41.414Z,27.67
2022-11-03T01:21:43.684Z,25.73
2022-11-03T01:22:45.415Z,27.00
2022-11-03T01:23:47.476Z,27.00
2022-11-03T01:24:49.823Z,25.33
2022-11-03T01:25:51.717Z,17.20
2022-11-03T01:26:53.565Z,26.78
2022-11-03T01:27:55.243Z,27.33
2022-11-03T01:28:59.478Z,26.78
2022-11-03T01:30:01.436Z,21.90
2022-11-03T01:31:12.711Z,30.70
2022-11-03T01:32:14.799Z,28.60
2022-11-03T01:33:17.562Z,27.00
2022-11-03T01:34:21.127Z,24.70
2022-11-03T01:35:22.865Z,29.30
2022-11-03T01:36:25.697Z,24.56
2022-11-03T01:37:27.410Z,30.40
2022-11-03T01:38:33.578Z,31.33
2022-11-03T01:39:35.657Z,31.30
2022-11-03T01:40:38.008Z,32.60
2022-11-03T01:41:42.331Z,32.30
2022-11-03T01:42:44.688Z,30.10
2022-11-03T01:44:08.314Z,29.80
2022-11-03T01:45:10.655Z,32.20
2022-11-03T01:47:33.592Z,30.50
2022-11-03T01:48:39.018Z,22.00
2022-11-03T01:49:56.891Z,30.40
2022-11-03T01:50:59.934Z,28.50
2022-11-03T01:52:15.290Z,25.64
2022-11-03T01:53:18.765Z,26.10
2022-11-03T01:54:23.778Z,28.50
2022-11-03T01:55:29.217Z,21.20
2022-11-03T01:56:34.866Z,29.00
2022-11-03T01:57:44.076Z,29.40
2022-11-03T01:58:49.249Z,30.60
2022-11-03T01:59:52.094Z,28.80
2022-11-03T02:00:58.681Z,28.20
2022-11-03T02:02:02.409Z,29.40
2022-11-03T02:03:06.149Z,34.70
2022-11-03T02:04:11.957Z,30.60
2022-11-03T02:05:16.136Z,31.10
2022-11-03T02:06:21.847Z,30.10
2022-11-03T02:07:38.628Z,32.20
2022-11-03T02:09:02.316Z,33.70
2022-11-03T02:10:08.287Z,33.50
2022-11-03T02:11:19.534Z,34.00
2022-11-03T02:12:23.463Z,31.70
2022-11-03T02:13:27.549Z,33.70
2022-11-03T02:14:29.500Z,34.10
2022-11-03T02:15:33.354Z,31.56
2022-11-03T02:17:51.516Z,27.90
2022-11-03T02:18:55.179Z,31.40
2022-11-03T02:20:16.120Z,25.20
2022-11-03T02:21:30.922Z,29.20
2022-11-03T02:22:45.710Z,27.10
2022-11-03T02:24:15.676Z,28.90
2022-11-03T02:25:53.684Z,30.80
2022-11-03T02:26:57.720Z,26.40
2022-11-03T02:28:00.213Z,31.40
2022-11-03T02:29:02.249Z,31.10
2022-11-03T02:30:06.033Z,29.80
2022-11-03T02:31:27.137Z,27.50
2022-11-03T02:32:32.610Z,32.50
2022-11-03T02:33:59.498Z,28.30
2022-11-03T02:35:11.008Z,28.70
2022-11-03T02:36:23.587Z,32.00
2022-11-03T02:37:29.097Z,30.20
2022-11-03T02:38:34.595Z,27.40
2022-11-03T02:39:40.102Z,31.30
2022-11-03T02:40:48.359Z,32.10
2022-11-03T02:41:53.067Z,31.70
2022-11-03T02:42:56.871Z,32.20
2022-11-03T02:44:13.046Z,32.10
2022-11-03T03:21:09.878Z,20.00
2022-11-03T03:22:30.344Z,35.00
2022-11-03T03:23:35.934Z,35.40
2022-11-03T03:24:53.791Z,34.70
2022-11-03T03:27:24.842Z,31.20
2022-11-03T03:28:30.336Z,34.50
2022-11-03T03:29:44.941Z,33.90
2022-11-03T03:30:51.382Z,34.10
2022-11-03T03:31:59.025Z,32.70
2022-11-03T03:33:04.687Z,24.90
2022-11-03T03:34:16.936Z,32.20
2022-11-03T03:35:15.969Z,31.50
2022-11-03T03:36:21.500Z,33.70
2022-11-03T03:37:27.250Z,32.00
2022-11-03T03:38:36.251Z,31.70
2022-11-03T03:39:41.223Z,32.30
2022-11-03T03:40:47.672Z,32.50
2022-11-03T03:41:51.136Z,32.10
2022-11-03T03:42:53.433Z,32.90
2022-11-03T03:43:59.332Z,35.20
2022-11-03T03:45:03.078Z,32.60
2022-11-03T03:46:08.960Z,32.50
2022-11-03T03:47:20.609Z,30.70
2022-11-03T03:48:22.767Z,32.60
2022-11-03T03:49:24.680Z,34.50
2022-11-03T03:50:30.157Z,45.44
2022-11-03T03:51:33.339Z,60.00
2022-11-03T03:52:36.901Z,33.50
2022-11-03T03:53:38.746Z,33.00
2022-11-03T03:54:40.599Z,33.56
2022-11-03T03:55:46.091Z,33.22
2022-11-03T03:56:57.865Z,32.00
2022-11-03T03:58:00.578Z,31.00
2022-11-03T03:59:02.586Z,30.55
2022-11-03T04:00:05.675Z,30.80
2022-11-03T04:01:12.104Z,32.20
2022-11-03T04:02:15.167Z,30.20
2022-11-03T04:03:20.147Z,31.10
2022-11-03T04:04:22.120Z,29.40
2022-11-03T04:05:24.638Z,15.78
2022-11-03T04:06:26.527Z,34.10
2022-11-03T04:07:28.297Z,32.44
2022-11-03T04:08:29.980Z,33.89
2022-11-03T04:09:37.037Z,33.33
2022-11-03T04:10:39.289Z,28.30
2022-11-03T04:11:41.442Z,36.89
2022-11-03T04:12:44.441Z,36.10
2022-11-03T04:13:46.250Z,36.10
2022-11-03T04:14:48.010Z,33.56
2022-11-03T04:15:51.142Z,35.22
2022-11-03T04:16:53.193Z,40.90
2022-11-03T04:17:55.036Z,36.80
2022-11-03T04:18:56.937Z,36.89
2022-11-03T04:19:59.125Z,36.50
2022-11-03T04:21:01.279Z,39.67
2022-11-03T04:22:03.633Z,36.33
2022-11-03T04:23:06.562Z,36.45
2022-11-03T04:24:11.702Z,36.90
2022-11-03T04:25:13.799Z,35.40
2022-11-03T04:26:19.243Z,41.00
2022-11-03T04:27:36.578Z,39.30
2022-11-03T04:28:38.923Z,37.20
2022-11-03T04:29:40.947Z,36.00
2022-11-03T04:30:43.413Z,36.40
2022-11-03T04:31:45.663Z,34.00
2022-11-03T04:32:50.378Z,38.30
2022-11-03T04:33:52.847Z,37.10
2022-11-03T04:34:54.738Z,41.50
2022-11-03T04:35:59.847Z,41.33
2022-11-03T04:37:02.181Z,42.30
2022-11-03T04:38:11.042Z,39.80
2022-11-03T04:39:19.145Z,41.10
2022-11-03T04:40:21.207Z,41.50
2022-11-03T04:41:26.960Z,49.60
2022-11-03T04:42:32.843Z,47.90
2022-11-03T04:43:37.497Z,43.20
2022-11-03T04:44:40.082Z,38.00
2022-11-03T04:45:46.170Z,39.10
2022-11-03T04:46:48.148Z,41.10
2022-11-03T04:47:52.274Z,47.89
2022-11-03T04:48:56.592Z,53.20
2022-11-03T04:49:58.745Z,42.80
2022-11-03T04:51:04.049Z,38.30
2022-11-03T04:52:18.214Z,35.60
2022-11-03T04:53:21.627Z,33.30
2022-11-03T04:54:23.456Z,34.10
2022-11-03T04:55:26.585Z,33.89
2022-11-03T04:56:29.652Z,35.00
2022-11-03T04:57:31.641Z,35.45
2022-11-03T04:58:35.171Z,35.33
2022-11-03T04:59:36.959Z,36.10
2022-11-03T05:00:39.377Z,36.56
2022-11-03T05:01:44.600Z,37.10
2022-11-03T05:02:53.198Z,35.30
2022-11-03T05:03:55.825Z,33.60
2022-11-03T05:04:59.079Z,32.80
2022-11-03T05:06:17.716Z,34.60
2022-11-03T05:07:25.094Z,33.10
2022-11-03T05:08:26.950Z,32.20
2022-11-03T05:09:31.799Z,34.44
2022-11-03T05:10:34.861Z,34.90
2022-11-03T05:11:45.457Z,32.70
2022-11-03T05:12:48.444Z,34.40
2022-11-03T05:13:51.731Z,34.09
2022-11-03T05:14:58.254Z,33.40
2022-11-03T05:16:04.326Z,30.10
2022-11-03T05:17:22.895Z,33.80
2022-11-03T05:18:28.195Z,32.10
2022-11-03T05:19:33.906Z,34.60
2022-11-03T05:20:38.695Z,32.50
2022-11-03T05:21:40.758Z,35.10
2022-11-03T05:22:43.516Z,35.22
2022-11-03T05:23:52.833Z,36.20
2022-11-03T05:24:58.432Z,35.30
2022-11-03T05:26:02.575Z,36.80
2022-11-03T05:27:08.305Z,38.50
2022-11-03T05:28:22.407Z,38.00
2022-11-03T05:29:34.915Z,35.10
2022-11-03T05:30:36.960Z,35.20
2022-11-03T05:31:41.835Z,35.20
2022-11-03T05:32:43.636Z,36.30
2022-11-03T05:33:46.566Z,35.33
2022-11-03T05:34:51.087Z,35.70
2022-11-03T05:35:54.598Z,31.80
2022-11-03T05:37:15.395Z,37.30
2022-11-03T05:38:21.445Z,35.80
2022-11-03T05:39:29.717Z,38.20
2022-11-03T05:40:32.911Z,39.10
2022-11-03T05:41:35.030Z,37.45
2022-11-03T05:42:43.479Z,35.80
2022-11-03T05:45:02.245Z,34.80
2022-11-03T05:46:04.360Z,37.60
2022-11-03T05:47:16.238Z,37.70
2022-11-03T05:48:30.998Z,35.00
2022-11-03T05:49:33.036Z,34.40
2022-11-03T05:50:35.713Z,35.70
2022-11-03T05:51:40.999Z,32.70
2022-11-03T05:52:43.702Z,36.20
2022-11-03T05:53:48.053Z,34.70
2022-11-03T05:54:51.589Z,36.10
2022-11-03T05:55:55.645Z,34.80
2022-11-03T05:56:58.088Z,36.60
2022-11-03T05:58:07.984Z,26.40
2022-11-03T05:59:13.169Z,37.50
2022-11-03T06:00:28.369Z,34.50
2022-11-03T06:01:37.230Z,34.90
2022-11-03T06:02:41.962Z,34.10
2022-11-03T06:03:45.461Z,34.90
2022-11-03T06:04:48.479Z,37.50
2022-11-03T06:05:51.054Z,37.09
2022-11-03T06:06:56.632Z,38.40
2022-11-03T06:08:03.044Z,40.00
2022-11-03T06:09:18.069Z,27.70
2022-11-03T06:10:26.661Z,37.60
2022-11-03T06:11:35.010Z,39.00
2022-11-03T06:12:37.435Z,38.10
2022-11-03T06:13:39.560Z,37.50
2022-11-03T06:14:41.960Z,40.00
2022-11-03T06:15:46.068Z,33.00
2022-11-03T06:18:17.658Z,39.80
2022-11-03T06:19:34.163Z,41.50
2022-11-03T06:20:36.293Z,40.10
2022-11-03T06:21:41.913Z,38.78
2022-11-03T06:22:42.625Z,37.80
2022-11-03T06:23:45.798Z,38.20
2022-11-03T06:24:49.972Z,38.70
2022-11-03T06:25:55.039Z,38.10
2022-11-03T06:26:58.114Z,38.80
2022-11-03T06:28:03.197Z,38.40
2022-11-03T06:29:05.046Z,40.80
2022-11-03T10:15:37.074Z,9.80
2022-11-03T10:16:41.945Z,12.60
2022-11-03T10:17:46.155Z,9.50
2022-11-03T10:18:49.212Z,11.30
2022-11-03T10:19:54.260Z,8.20
2022-11-03T10:21:00.378Z,9.20
2022-11-03T10:22:02.337Z,9.20
2022-11-03T10:23:05.691Z,8.90
2022-11-03T10:25:34.300Z,7.50
2022-11-03T10:27:47.817Z,7.40
2022-11-03T10:29:03.423Z,5.56
2022-11-03T10:30:09.597Z,6.80
2022-11-03T10:31:20.759Z,6.50
2022-11-03T10:32:30.811Z,7.70
2022-11-03T10:33:38.066Z,8.00
2022-11-03T10:34:40.132Z,7.40
2022-11-03T10:35:42.043Z,7.40
2022-11-03T10:36:48.135Z,10.80
2022-11-03T10:37:49.360Z,4.00
2022-11-03T10:38:51.888Z,6.50
2022-11-03T10:39:57.651Z,8.00
2022-11-03T10:41:19.758Z,6.50
2022-11-03T10:42:24.211Z,7.70
2022-11-03T10:43:27.418Z,5.80
2022-11-03T10:44:30.220Z,7.00
2022-11-03T10:45:32.984Z,8.60
2022-11-03T10:46:50.296Z,8.80
2022-11-03T10:47:40.043Z,5.60
2022-11-03T10:48:42.928Z,6.33
2022-11-03T10:49:45.403Z,7.30
2022-11-03T10:50:49.944Z,10.40
2022-11-03T10:51:56.882Z,10.50
2022-11-03T10:52:59.709Z,8.10
2022-11-03T10:54:05.155Z,9.50
2022-11-03T10:55:10.986Z,10.50
2022-11-03T10:56:15.191Z,4.70
2022-11-03T10:57:18.944Z,9.56
2022-11-03T10:58:21.393Z,11.20
2022-11-03T10:59:30.103Z,9.30
2022-11-03T11:00:33.338Z,9.50
2022-11-03T11:01:37.014Z,10.70
2022-11-03T11:02:44.140Z,11.10
2022-11-03T11:03:46.249Z,10.20
2022-11-03T11:04:50.736Z,10.60
2022-11-03T11:05:52.710Z,9.30
2022-11-03T11:06:54.948Z,9.50
2022-11-03T11:07:58.918Z,8.10
2022-11-03T11:09:04.733Z,12.00
2022-11-03T11:10:15.242Z,11.50
2022-11-03T11:11:17.973Z,10.20
2022-11-03T11:12:24.463Z,9.00
2022-11-03T11:13:27.862Z,10.90
2022-11-03T11:14:35.228Z,10.20
2022-11-03T11:15:49.485Z,5.40
2022-11-03T11:16:54.148Z,9.60
2022-11-03T11:17:57.217Z,12.40
2022-11-03T11:19:00.892Z,11.00
2022-11-03T11:20:18.641Z,8.10
2022-11-03T11:21:24.272Z,9.90
2022-11-03T11:22:26.077Z,9.40
2022-11-03T11:23:31.557Z,8.56
2022-11-03T11:24:47.438Z,11.00
2022-11-03T11:26:11.420Z,10.60
2022-11-03T11:27:38.758Z,12.20
2022-11-03T11:28:43.775Z,11.30
2022-11-03T11:29:45.623Z,13.50
2022-11-03T11:30:56.198Z,13.60
2022-11-03T11:31:58.889Z,13.00
2022-11-03T11:33:16.232Z,13.00
2022-11-03T11:34:22.818Z,11.50
2022-11-03T11:35:29.532Z,10.50
2022-11-03T11:36:31.658Z,11.30
2022-11-03T11:37:36.077Z,6.70
2022-11-03T11:38:50.290Z,8.50
2022-11-03T11:39:52.758Z,9.40
2022-11-03T11:40:54.760Z,10.50
2022-11-03T11:42:17.774Z,12.56
2022-11-03T11:43:23.510Z,11.80
2022-11-03T11:44:56.610Z,13.30
2022-11-03T11:46:23.480Z,13.20
2022-11-03T11:47:29.088Z,8.80
2022-11-03T11:48:31.752Z,11.30
2022-11-03T11:49:33.483Z,8.00
2022-11-03T11:50:35.462Z,11.33
2022-11-03T11:51:37.485Z,11.56
2022-11-03T11:53:02.427Z,6.70
2022-11-03T11:54:18.574Z,10.90
2022-11-03T11:55:21.095Z,9.00
2022-11-03T11:56:23.463Z,6.80
2022-11-03T11:57:27.947Z,8.70
2022-11-03T11:58:36.395Z,8.70
2022-11-03T11:59:38.370Z,7.40
2022-11-03T12:00:54.610Z,9.30
2022-11-03T12:01:59.009Z,7.70
2022-11-03T12:03:03.727Z,8.70
2022-11-03T12:05:24.063Z,8.60
2022-11-03T12:06:34.712Z,9.10
2022-11-03T12:07:37.158Z,10.00
2022-11-03T12:08:40.111Z,6.30
2022-11-03T12:09:42.063Z,9.55
2022-11-03T12:10:55.551Z,8.40
2022-11-03T12:12:08.104Z,7.50
2022-11-03T12:13:09.479Z,8.30
2022-11-03T12:14:38.665Z,9.60
2022-11-03T12:15:57.058Z,12.40
2022-11-03T12:17:17.685Z,9.30
2022-11-03T12:18:39.959Z,9.80
2022-11-03T12:19:45.996Z,10.10
2022-11-03T12:20:48.017Z,8.90
2022-11-03T12:21:49.931Z,12.20
2022-11-03T12:22:51.795Z,10.78
2022-11-03T12:23:53.565Z,11.11
2022-11-03T12:25:01.364Z,9.44
2022-11-03T12:26:04.839Z,11.70
2022-11-03T12:27:22.583Z,10.80
2022-11-03T12:29:44.965Z,12.60
2022-11-03T12:30:47.809Z,10.80
2022-11-03T12:31:50.115Z,8.45
2022-11-03T12:32:52.114Z,9.40
2022-11-03T12:33:54.529Z,8.40
2022-11-03T12:34:56.360Z,11.70
2022-11-03T12:35:58.084Z,10.33
2022-11-03T12:37:01.567Z,10.00
2022-11-03T12:38:03.565Z,10.20
2022-11-03T12:39:06.775Z,10.22
2022-11-03T12:40:11.948Z,9.40
2022-11-03T12:41:14.991Z,10.40
2022-11-03T12:42:16.761Z,12.00
2022-11-03T12:43:20.013Z,10.89
2022-11-03T12:44:22.288Z,14.40
2022-11-03T12:45:25.041Z,11.90
2022-11-03T12:46:27.938Z,13.18
2022-11-03T12:47:31.115Z,12.27
2022-11-03T12:48:33.112Z,12.00
2022-11-03T12:49:35.109Z,13.30
2022-11-03T12:50:37.653Z,11.44
2022-11-03T12:51:39.427Z,7.90
2022-11-03T12:52:41.154Z,7.56
2022-11-03T12:53:44.344Z,10.67
2022-11-03T12:54:46.767Z,10.50
2022-11-03T12:55:48.685Z,12.80
2022-11-03T12:56:52.648Z,10.67
2022-11-03T12:57:54.587Z,8.30
2022-11-03T12:58:57.493Z,10.40
2022-11-03T12:59:59.807Z,11.00
2022-11-03T13:01:03.571Z,12.40
2022-11-03T13:02:07.018Z,13.10
2022-11-03T13:03:10.685Z,11.10
2022-11-03T13:04:15.539Z,14.10
2022-11-03T13:05:19.395Z,11.55
2022-11-03T13:06:21.453Z,11.70
2022-11-03T13:07:27.905Z,11.67
2022-11-03T13:08:28.012Z,9.40
2022-11-03T13:09:30.522Z,7.50
2022-11-03T13:10:33.510Z,10.60
2022-11-03T13:11:35.877Z,12.10
2022-11-03T13:12:37.653Z,13.20
2022-11-03T13:13:39.324Z,8.11
2022-11-03T13:14:45.934Z,9.44
2022-11-03T13:15:45.570Z,8.90
2022-11-03T13:16:47.568Z,11.70
2022-11-03T13:18:12.097Z,11.33
2022-11-03T13:18:52.830Z,10.00
2022-11-03T13:19:54.906Z,11.11
2022-11-03T13:20:57.856Z,16.20
2022-11-03T13:21:59.763Z,10.09
2022-11-03T13:23:04.235Z,8.22
2022-11-03T13:24:08.830Z,12.30
2022-11-03T13:25:11.126Z,11.44
2022-11-03T13:26:13.070Z,12.60
2022-11-03T13:27:14.808Z,10.56
2022-11-03T13:28:16.436Z,7.56
2022-11-03T13:29:18.287Z,7.56
2022-11-03T13:30:21.071Z,9.89
2022-11-03T13:31:23.096Z,8.82
2022-11-03T13:32:26.952Z,9.70
2022-11-03T13:33:29.304Z,10.80
2022-11-03T13:34:31.194Z,8.10
2022-11-03T13:35:33.559Z,11.78
2022-11-03T13:36:36.498Z,9.10
2022-11-03T13:37:38.512Z,9.80
2022-11-03T13:38:41.446Z,9.70
2022-11-03T13:39:43.313Z,8.73
2022-11-03T13:41:06.928Z,10.00
2022-11-03T13:41:49.647Z,10.70
2022-11-03T13:42:51.323Z,11.56
2022-11-03T13:43:53.547Z,9.44
2022-11-03T13:45:58.330Z,9.00
2022-11-03T13:47:00.744Z,10.20
2022-11-03T13:48:57.570Z,10.40
2022-11-03T13:50:15.363Z,10.70
2022-11-03T13:51:15.669Z,7.30
2022-11-03T13:52:19.422Z,6.40
2022-11-03T13:55:45.292Z,5.00
2022-11-03T13:59:45.704Z,8.10
2022-11-03T14:00:47.502Z,8.60
2022-11-03T14:05:04.281Z,10.90
2022-11-03T14:06:06.472Z,9.10
2022-11-03T14:07:08.970Z,10.70
2022-11-03T14:08:10.832Z,11.00
2022-11-03T14:09:14.204Z,9.90
2022-11-03T14:10:16.879Z,7.10
2022-11-03T14:11:18.875Z,11.20
2022-11-03T14:12:20.824Z,10.90
2022-11-03T14:13:22.945Z,11.50
2022-11-03T14:14:24.750Z,11.78
2022-11-03T14:15:27.352Z,11.44
2022-11-03T14:16:29.255Z,9.50
2022-11-03T14:17:32.050Z,4.78
2022-11-03T14:18:34.003Z,6.82
2022-11-03T14:19:41.696Z,7.56
2022-11-03T14:20:40.286Z,9.90
2022-11-03T14:21:42.588Z,6.50
2022-11-03T14:22:45.099Z,8.00
2022-11-03T14:23:47.732Z,8.50
2022-11-03T18:14:39.485Z,25.50
2022-11-03T18:15:48.052Z,28.20
2022-11-03T18:16:52.091Z,31.70
2022-11-03T18:17:55.098Z,23.60
2022-11-03T18:18:58.416Z,21.00
2022-11-03T18:20:01.619Z,23.90
2022-11-03T18:21:05.846Z,21.70
2022-11-03T18:22:08.803Z,18.80
2022-11-03T18:23:17.434Z,22.40
2022-11-03T18:24:19.909Z,19.10
2022-11-03T18:25:22.450Z,18.30
2022-11-03T18:26:26.667Z,20.60
2022-11-03T18:27:29.124Z,13.60
2022-11-03T18:28:30.993Z,17.50
2022-11-03T18:29:33.774Z,18.80
2022-11-03T18:30:37.749Z,16.00
2022-11-03T18:31:45.220Z,20.40
2022-11-03T18:32:48.579Z,20.20
2022-11-03T18:33:52.732Z,19.70
2022-11-03T18:34:55.965Z,18.40
2022-11-03T18:36:01.577Z,19.30
2022-11-03T18:37:04.300Z,20.80
2022-11-03T18:38:12.825Z,20.60
2022-11-03T18:39:23.662Z,21.80
2022-11-03T18:40:26.031Z,21.60
2022-11-03T18:41:28.854Z,21.60
2022-11-03T18:42:34.804Z,22.20
2022-11-03T18:43:38.832Z,20.20
2022-11-03T18:44:41.553Z,21.10
2022-11-03T18:45:44.998Z,18.70
2022-11-03T18:46:48.282Z,16.20
2022-11-03T18:47:50.594Z,19.40
2022-11-03T18:48:52.893Z,20.10
2022-11-03T18:49:55.119Z,18.20
2022-11-03T18:50:57.295Z,17.60
2022-11-03T18:52:03.755Z,20.60
2022-11-03T18:53:10.897Z,22.80
2022-11-03T18:55:22.612Z,25.50
2022-11-03T18:56:35.697Z,22.50
2022-11-03T18:57:39.080Z,24.90
2022-11-03T18:58:47.113Z,26.40
2022-11-03T18:59:51.543Z,23.30
2022-11-03T19:00:58.169Z,23.30
2022-11-03T19:02:09.074Z,24.10
2022-11-03T19:03:17.665Z,24.60
2022-11-03T19:04:24.655Z,23.70
2022-11-03T19:05:29.136Z,18.20
2022-11-03T19:06:31.662Z,22.00
2022-11-03T19:07:34.507Z,24.27
2022-11-03T19:08:36.552Z,25.30
2022-11-03T19:09:38.986Z,24.00
2022-11-03T19:10:41.200Z,24.50
2022-11-03T19:11:44.324Z,20.90
2022-11-03T19:12:46.471Z,22.60
2022-11-03T19:13:49.741Z,10.10
2022-11-03T19:14:51.924Z,20.70
2022-11-03T19:15:55.931Z,20.22
2022-11-03T19:17:24.324Z,20.60
2022-11-03T19:18:13.140Z,21.80
2022-11-03T19:19:15.959Z,19.80
2022-11-03T19:20:18.794Z,20.20
2022-11-03T19:21:23.069Z,21.82
2022-11-03T19:22:25.324Z,21.50
2022-11-03T19:23:27.133Z,21.00
2022-11-03T19:24:28.916Z,21.22
2022-11-03T19:25:30.848Z,20.22
2022-11-03T19:26:45.587Z,17.80
2022-11-03T19:27:49.800Z,20.40
2022-11-03T19:29:06.293Z,19.90
2022-11-03T19:30:12.421Z,20.00
2022-11-03T19:31:21.671Z,21.50
2022-11-03T19:32:30.863Z,22.90
2022-11-03T19:33:36.846Z,25.30
2022-11-03T19:34:39.375Z,20.50
2022-11-03T19:35:44.038Z,21.90
2022-11-03T19:36:47.945Z,25.20
2022-11-03T19:37:53.916Z,23.40
2022-11-03T19:38:57.424Z,22.50
2022-11-03T19:40:00.367Z,22.20
2022-11-03T19:41:18.545Z,22.00
2022-11-03T19:42:21.546Z,22.20
2022-11-03T19:43:23.255Z,22.11
2022-11-03T19:44:24.996Z,20.89
2022-11-03T19:45:27.807Z,15.78
2022-11-03T19:46:29.860Z,22.27
2022-11-03T19:47:38.343Z,20.00
2022-11-03T19:48:41.440Z,21.80
2022-11-03T19:49:44.834Z,20.00
2022-11-03T19:50:47.512Z,20.70
2022-11-03T19:51:50.342Z,21.50
2022-11-03T19:52:59.002Z,22.10
2022-11-03T19:54:02.055Z,20.40
2022-11-03T19:55:07.723Z,20.70
2022-11-03T19:56:11.057Z,23.60
2022-11-03T19:57:15.413Z,19.44
2022-11-03T19:58:21.230Z,20.80
2022-11-03T19:59:23.109Z,21.10
2022-11-03T20:00:25.163Z,24.20
2022-11-03T20:01:26.961Z,22.11
2022-11-03T20:02:29.015Z,21.10
2022-11-03T20:03:31.599Z,21.80
2022-11-03T20:04:34.480Z,23.00
2022-11-03T20:05:38.102Z,23.18
2022-11-03T20:06:40.300Z,25.00
2022-11-03T20:07:44.036Z,23.70
2022-11-03T20:08:47.025Z,23.70
2022-11-03T20:09:49.945Z,19.90
2022-11-03T20:10:53.374Z,23.30
2022-11-03T20:12:03.204Z,21.20
2022-11-03T20:13:07.667Z,19.90
2022-11-03T20:14:16.574Z,19.10
2022-11-03T20:15:21.473Z,19.10
2022-11-03T20:16:23.951Z,20.90
2022-11-03T20:17:26.266Z,21.10
2022-11-03T20:18:30.086Z,13.70
2022-11-03T20:19:32.816Z,22.80
2022-11-03T20:20:36.673Z,21.10
2022-11-03T20:21:39.984Z,20.70
2022-11-03T20:22:48.845Z,19.90
2022-11-03T20:23:51.303Z,21.30
2022-11-03T20:24:59.836Z,20.80
2022-11-03T20:26:01.989Z,19.40
2022-11-03T20:27:04.395Z,18.40
2022-11-03T20:28:20.120Z,17.20
2022-11-03T20:29:23.122Z,18.90
2022-11-03T20:30:28.154Z,20.30
2022-11-03T20:31:34.433Z,18.00
2022-11-03T20:32:38.416Z,19.70
2022-11-03T20:33:40.941Z,18.00
2022-11-03T20:34:58.076Z,17.78
2022-11-03T20:35:58.549Z,17.70
2022-11-03T20:37:17.985Z,15.80
2022-11-03T20:38:46.040Z,15.00
2022-11-03T20:39:39.253Z,18.20
2022-11-03T20:40:42.165Z,17.30
2022-11-03T20:41:49.801Z,17.00
2022-11-03T20:42:59.766Z,20.00
2022-11-03T20:44:02.002Z,15.40
2022-11-03T20:45:15.578Z,17.60
2022-11-03T20:46:29.304Z,17.40
2022-11-03T20:47:31.362Z,20.40
2022-11-03T20:48:34.136Z,17.00
2022-11-03T20:49:37.248Z,19.60
2022-11-03T20:50:41.744Z,20.45
2022-11-03T20:51:45.652Z,18.20
2022-11-03T20:52:49.477Z,21.40
2022-11-03T20:53:52.146Z,19.70
2022-11-03T20:54:53.874Z,20.50
2022-11-03T20:55:56.850Z,22.67
2022-11-03T20:56:59.052Z,25.30
2022-11-03T20:58:01.154Z,22.50
2022-11-03T20:59:03.067Z,24.50
2022-11-03T21:00:07.143Z,25.80
2022-11-03T21:01:15.644Z,26.40
2022-11-03T21:02:18.361Z,24.20
2022-11-03T21:03:53.673Z,27.60
2022-11-03T21:04:29.761Z,25.60
2022-11-03T21:05:32.757Z,24.20
2022-11-03T21:06:37.295Z,23.70
2022-11-03T21:07:39.060Z,22.90
2022-11-03T21:08:41.234Z,23.44
2022-11-03T21:09:43.520Z,23.00
2022-11-03T21:10:45.539Z,24.30
2022-11-03T21:11:52.154Z,24.20
2022-11-03T21:12:56.604Z,23.00
2022-11-03T21:14:02.492Z,24.60
2022-11-03T21:15:08.491Z,23.80
2022-11-03T21:16:24.145Z,24.20
2022-11-03T21:17:15.184Z,25.60
2022-11-03T21:18:16.977Z,22.90
2022-11-03T21:19:22.692Z,23.78
2022-11-03T21:20:25.683Z,24.60
2022-11-03T21:21:28.751Z,20.80
2022-11-03T21:22:53.347Z,22.50
2022-11-03T21:23:40.656Z,21.50
2022-11-03T21:24:48.036Z,22.20
2022-11-03T21:25:53.166Z,21.10
2022-11-03T21:26:56.133Z,21.90
2022-11-03T21:27:58.889Z,20.55
2022-11-03T21:29:01.614Z,22.20
2022-11-03T21:30:04.766Z,21.20
2022-11-03T21:31:10.302Z,21.60
2022-11-03T21:32:14.877Z,23.60
2022-11-03T21:33:17.438Z,21.10
2022-11-03T21:34:19.223Z,22.90
2022-11-03T21:35:22.268Z,20.89
2022-11-03T21:36:24.319Z,24.10
2022-11-03T21:37:26.171Z,20.90
2022-11-03T21:38:28.452Z,19.78
2022-11-03T21:39:31.460Z,17.90
2022-11-03T21:40:33.652Z,21.10
2022-11-03T21:41:36.533Z,20.60
2022-11-03T21:42:39.211Z,20.82
2022-11-03T21:43:42.190Z,22.09
2022-11-03T21:44:44.382Z,24.36
2022-11-03T21:45:46.389Z,21.40
2022-11-03T21:46:48.757Z,21.80
2022-11-03T21:47:50.604Z,19.20
2022-11-03T21:48:52.558Z,21.44
2022-11-03T21:49:54.911Z,21.22
2022-11-03T21:50:59.739Z,18.10
2022-11-03T21:52:01.637Z,21.60
2022-11-03T21:53:03.410Z,24.00
2022-11-03T21:54:05.701Z,27.89
2022-11-03T21:55:08.312Z,26.40
2022-11-03T21:56:15.457Z,28.50
2022-11-03T21:57:15.359Z,34.10
2022-11-03T21:58:17.222Z,32.40
2022-11-03T21:59:21.707Z,25.30
2022-11-03T22:00:23.733Z,29.40
2022-11-03T22:01:26.021Z,34.44
2022-11-03T22:02:28.390Z,32.40
2022-11-03T22:03:31.422Z,32.90
2022-11-03T22:04:33.333Z,33.91
2022-11-03T22:05:36.295Z,31.30
2022-11-03T22:06:38.807Z,9.11
2022-11-03T22:07:41.013Z,31.90
2022-11-03T22:08:43.889Z,31.50
2022-11-03T22:09:46.294Z,30.40
2022-11-03T22:10:48.370Z,33.20
2022-11-03T22:11:50.964Z,30.40
2022-11-03T22:12:55.134Z,30.80
2022-11-03T22:14:00.132Z,31.50
2022-11-03T22:15:01.906Z,30.40
2022-11-03T22:16:04.678Z,29.20
2022-11-03T22:17:07.423Z,30.40
2022-11-03T22:18:09.623Z,31.10
2022-11-03T22:19:16.361Z,31.70
2022-11-03T22:20:19.339Z,32.70
2022-11-03T22:21:21.607Z,28.90
2022-11-03T22:22:23.711Z,29.20
2022-11-03T22:23:25.435Z,31.33
2022-11-03T22:24:27.653Z,28.89
2022-11-03T22:25:29.377Z,25.80
2022-11-03T22:26:31.233Z,23.67
2022-11-03T22:27:34.284Z,23.00
2022-11-03T22:28:36.842Z,21.50
2022-11-03T22:29:39.471Z,23.64
2022-11-03T22:30:41.988Z,24.30
2022-11-03T22:31:45.017Z,26.10
2022-11-03T22:32:55.158Z,23.45
2022-11-03T22:33:57.115Z,19.90
2022-11-03T22:34:59.224Z,19.90
2022-11-03T22:36:02.213Z,23.56
2022-11-03T22:37:05.420Z,22.00
2022-11-03T22:38:16.003Z,21.10
2022-11-03T22:39:18.540Z,22.60
2022-11-03T22:40:20.917Z,22.80
2022-11-03T22:41:23.121Z,24.50
2022-11-03T22:42:25.020Z,22.20
2022-11-03T22:43:27.299Z,20.89
2022-11-03T22:44:29.005Z,21.00
2022-11-03T22:45:30.956Z,18.89
2022-11-03T22:46:33.040Z,18.10